createdAt,value
2023-04-09T00:00:45.605Z,2.00
2023-04-09T00:01:45.634Z,1.70
2023-04-09T00:02:45.647Z,2.30
2023-04-09T00:03:45.676Z,2.10
2023-04-09T00:04:45.711Z,1.90
2023-04-09T00:05:45.631Z,2.00
2023-04-09T00:06:45.640Z,1.90
2023-04-09T00:07:45.635Z,2.30
2023-04-09T00:08:45.668Z,2.60
2023-04-09T00:09:45.650Z,2.10
2023-04-09T00:10:45.659Z,2.10
2023-04-09T00:11:45.659Z,1.80
2023-04-09T00:12:45.673Z,1.60
2023-04-09T00:13:45.676Z,1.70
2023-04-09T00:14:45.679Z,1.60
2023-04-09T00:15:45.682Z,1.40
2023-04-09T00:16:45.820Z,1.50
2023-04-09T00:17:45.812Z,1.70
2023-04-09T00:18:45.731Z,1.80
2023-04-09T00:19:45.707Z,1.60
2023-04-09T00:20:45.719Z,1.50
2023-04-09T00:21:45.721Z,1.60
2023-04-09T00:22:45.724Z,1.60
2023-04-09T00:23:45.726Z,1.40
2023-04-09T00:24:45.754Z,2.00
2023-04-09T00:25:45.751Z,1.80
2023-04-09T00:26:45.746Z,1.70
2023-04-09T00:27:45.747Z,1.80
2023-04-09T00:28:45.757Z,1.60
2023-04-09T00:29:45.766Z,1.60
2023-04-09T00:30:45.800Z,2.10
2023-04-09T00:31:45.790Z,2.40
2023-04-09T00:32:45.798Z,3.20
2023-04-09T00:33:45.778Z,3.30
2023-04-09T00:34:45.803Z,3.00
2023-04-09T00:35:45.817Z,2.50
2023-04-09T00:36:45.812Z,2.50
2023-04-09T00:37:45.820Z,1.90
2023-04-09T00:38:45.830Z,1.70
2023-04-09T00:39:45.820Z,1.70
2023-04-09T00:40:45.841Z,1.60
2023-04-09T00:41:45.831Z,1.70
2023-04-09T00:42:45.830Z,1.50
2023-04-09T00:43:45.834Z,1.80
2023-04-09T00:44:45.846Z,1.60
2023-04-09T00:45:45.928Z,1.70
2023-04-09T00:46:45.854Z,1.80
2023-04-09T00:47:45.875Z,1.50
2023-04-09T00:48:45.869Z,1.80
2023-04-09T00:49:45.881Z,1.80
2023-04-09T00:50:45.881Z,1.70
2023-04-09T00:51:45.879Z,1.70
2023-04-09T00:52:45.890Z,1.50
2023-04-09T00:53:45.887Z,1.80
2023-04-09T00:54:45.898Z,1.70
2023-04-09T00:55:45.948Z,1.70
2023-04-09T00:56:45.944Z,1.50
2023-04-09T00:57:45.931Z,1.60
2023-04-09T00:58:45.926Z,1.40
2023-04-09T00:59:45.921Z,1.60
2023-04-09T01:00:45.943Z,1.90
2023-04-09T01:01:45.968Z,1.50
2023-04-09T01:02:46.097Z,1.80
2023-04-09T01:03:46.023Z,1.40
2023-04-09T01:04:45.953Z,1.70
2023-04-09T01:05:45.964Z,1.40
2023-04-09T01:06:45.959Z,1.50
2023-04-09T01:07:45.960Z,1.50
2023-04-09T01:08:45.989Z,1.30
2023-04-09T01:09:45.983Z,1.40
2023-04-09T01:10:45.978Z,1.40
2023-04-09T01:11:45.984Z,1.50
2023-04-09T01:12:46.013Z,1.80
2023-04-09T01:13:45.992Z,1.30
2023-04-09T01:14:46.017Z,1.40
2023-04-09T01:15:46.002Z,1.70
2023-04-09T01:16:46.058Z,1.50
2023-04-09T01:17:46.028Z,1.50
2023-04-09T01:18:46.022Z,1.40
2023-04-09T01:19:46.026Z,1.20
2023-04-09T01:20:46.039Z,1.40
2023-04-09T01:21:46.033Z,1.30
2023-04-09T01:22:46.044Z,1.20
2023-04-09T01:23:46.044Z,1.60
2023-04-09T01:24:46.057Z,1.40
2023-04-09T01:25:46.055Z,1.40
2023-04-09T01:26:46.065Z,1.40
2023-04-09T01:27:46.069Z,1.30
2023-04-09T01:28:46.117Z,1.50
2023-04-09T01:29:46.094Z,1.30
2023-04-09T01:30:46.089Z,1.40
2023-04-09T01:31:46.082Z,1.60
2023-04-09T01:32:46.186Z,1.30
2023-04-09T01:33:46.095Z,1.60
2023-04-09T01:34:46.104Z,1.20
2023-04-09T01:35:46.135Z,1.50
2023-04-09T01:36:46.125Z,1.50
2023-04-09T01:37:46.119Z,1.50
2023-04-09T01:38:46.121Z,1.50
2023-04-09T01:39:46.134Z,1.10
2023-04-09T01:40:46.133Z,1.30
2023-04-09T01:41:46.157Z,1.20
2023-04-09T01:42:46.143Z,1.30
2023-04-09T01:43:46.167Z,1.40
2023-04-09T01:44:46.176Z,1.60
2023-04-09T01:45:46.167Z,1.40
2023-04-09T01:46:46.165Z,1.40
2023-04-09T01:47:46.170Z,1.60
2023-04-09T01:48:46.173Z,1.40
2023-04-09T01:49:46.173Z,1.60
2023-04-09T01:50:46.188Z,1.50
2023-04-09T01:51:46.190Z,1.30
2023-04-09T01:52:46.195Z,1.50
2023-04-09T01:53:46.217Z,1.60
2023-04-09T01:54:46.205Z,1.60
2023-04-09T01:55:46.205Z,1.90
2023-04-09T01:56:46.223Z,1.50
2023-04-09T01:57:46.214Z,1.70
2023-04-09T01:58:46.222Z,1.40
2023-04-09T01:59:46.235Z,1.40
2023-04-09T02:00:46.346Z,1.60
2023-04-09T02:01:46.403Z,1.80
2023-04-09T02:02:46.333Z,1.60
2023-04-09T02:03:46.385Z,1.70
2023-04-09T02:04:46.253Z,1.60
2023-04-09T02:05:46.256Z,1.70
2023-04-09T02:06:46.264Z,1.60
2023-04-09T02:07:46.270Z,1.50
2023-04-09T02:08:46.301Z,1.60
2023-04-09T02:09:46.276Z,1.50
2023-04-09T02:10:46.281Z,1.50
2023-04-09T02:11:46.286Z,1.50
2023-04-09T02:12:46.289Z,1.70
2023-04-09T02:13:46.290Z,1.80
2023-04-09T02:14:46.302Z,1.80
2023-04-09T02:15:46.327Z,1.70
2023-04-09T02:16:46.329Z,1.70
2023-04-09T02:17:46.325Z,1.70
2023-04-09T02:18:46.349Z,1.50
2023-04-09T02:19:46.318Z,1.60
2023-04-09T02:20:46.334Z,1.40
2023-04-09T02:21:46.350Z,1.80
2023-04-09T02:22:46.348Z,1.40
2023-04-09T02:23:46.347Z,1.60
2023-04-09T02:24:46.348Z,1.70
2023-04-09T02:25:46.348Z,1.80
2023-04-09T02:26:46.364Z,1.90
2023-04-09T02:27:46.360Z,1.80
2023-04-09T02:28:46.365Z,1.60
2023-04-09T02:29:46.376Z,1.50
2023-04-09T02:30:46.418Z,1.60
2023-04-09T02:31:46.375Z,1.70
2023-04-09T02:32:46.460Z,1.80
2023-04-09T02:33:46.389Z,1.70
2023-04-09T02:34:46.406Z,1.90
2023-04-09T02:35:46.434Z,1.90
2023-04-09T02:36:46.411Z,1.90
2023-04-09T02:37:46.408Z,2.10
2023-04-09T02:38:46.431Z,1.90
2023-04-09T02:39:46.430Z,2.10
2023-04-09T02:40:46.422Z,2.30
2023-04-09T02:41:46.422Z,1.80
2023-04-09T02:42:46.428Z,1.90
2023-04-09T02:43:46.431Z,1.70
2023-04-09T02:44:46.442Z,1.90
2023-04-09T02:45:46.450Z,1.90
2023-04-09T02:46:46.505Z,2.30
2023-04-09T02:47:46.529Z,2.40
2023-04-09T02:48:46.473Z,2.00
2023-04-09T02:49:46.464Z,2.20
2023-04-09T02:50:46.472Z,2.00
2023-04-09T02:51:46.478Z,1.90
2023-04-09T02:52:46.484Z,1.70
2023-04-09T02:53:46.491Z,1.60
2023-04-09T02:54:46.487Z,1.80
2023-04-09T02:55:46.501Z,1.50
2023-04-09T02:56:46.497Z,1.60
2023-04-09T02:57:46.506Z,1.90
2023-04-09T02:58:46.506Z,1.70
2023-04-09T02:59:46.515Z,1.70
2023-04-09T03:00:46.515Z,1.90
2023-04-09T03:01:46.625Z,1.80
2023-04-09T03:02:46.676Z,1.70
2023-04-09T03:03:46.598Z,1.90
2023-04-09T03:04:46.544Z,1.70
2023-04-09T03:05:46.554Z,1.80
2023-04-09T03:06:46.544Z,1.70
2023-04-09T03:07:46.545Z,1.70
2023-04-09T03:08:46.551Z,1.70
2023-04-09T03:09:46.559Z,2.10
2023-04-09T03:10:46.558Z,1.60
2023-04-09T03:11:46.570Z,1.40
2023-04-09T03:12:46.572Z,1.50
2023-04-09T03:13:46.576Z,1.60
2023-04-09T03:14:46.590Z,1.50
2023-04-09T03:15:46.602Z,1.50
2023-04-09T03:16:46.601Z,1.20
2023-04-09T03:17:46.600Z,1.50
2023-04-09T03:18:46.592Z,1.20
2023-04-09T03:19:46.637Z,1.20
2023-04-09T03:20:46.620Z,1.40
2023-04-09T03:21:46.610Z,1.30
2023-04-09T03:22:46.618Z,1.10
2023-04-09T03:23:46.619Z,1.20
2023-04-09T03:24:46.629Z,1.40
2023-04-09T03:25:46.623Z,1.20
2023-04-09T03:26:46.633Z,1.30
2023-04-09T03:27:46.644Z,1.30
2023-04-09T03:28:46.640Z,1.40
2023-04-09T03:29:46.645Z,1.30
2023-04-09T03:30:46.702Z,1.40
2023-04-09T03:31:46.675Z,1.20
2023-04-09T03:32:46.684Z,1.50
2023-04-09T03:33:46.665Z,1.20
2023-04-09T03:34:46.666Z,1.20
2023-04-09T03:35:46.692Z,1.20
2023-04-09T03:36:46.691Z,1.40
2023-04-09T03:37:46.682Z,1.20
2023-04-09T03:38:46.683Z,1.40
2023-04-09T03:39:46.710Z,1.50
2023-04-09T03:40:46.696Z,1.30
2023-04-09T03:41:46.710Z,1.30
2023-04-09T03:42:46.705Z,1.40
2023-04-09T03:43:46.707Z,1.30
2023-04-09T03:44:46.720Z,1.20
2023-04-09T03:45:46.716Z,1.20
2023-04-09T03:46:46.739Z,1.00
2023-04-09T03:47:46.802Z,1.20
2023-04-09T03:48:46.724Z,1.40
2023-04-09T03:49:46.734Z,1.40
2023-04-09T03:50:46.777Z,1.20
2023-04-09T03:51:46.746Z,1.10
2023-04-09T03:52:46.766Z,1.10
2023-04-09T03:53:46.767Z,1.30
2023-04-09T03:54:46.759Z,1.20
2023-04-09T03:55:46.759Z,1.30
2023-04-09T03:56:46.763Z,1.40
2023-04-09T03:57:46.769Z,1.20
2023-04-09T03:58:46.770Z,1.30
2023-04-09T03:59:46.780Z,1.40
2023-04-09T04:00:46.779Z,1.50
2023-04-09T04:01:46.859Z,1.40
2023-04-09T04:02:46.934Z,1.60
2023-04-09T04:03:46.999Z,1.90
2023-04-09T04:04:46.863Z,2.20
2023-04-09T04:05:46.804Z,2.00
2023-04-09T04:06:46.800Z,2.20
2023-04-09T04:07:46.812Z,2.70
2023-04-09T04:08:46.828Z,2.40
2023-04-09T04:09:46.816Z,2.20
2023-04-09T04:10:46.819Z,1.90
2023-04-09T04:11:46.826Z,1.70
2023-04-09T04:12:46.876Z,1.80
2023-04-09T04:13:46.856Z,1.90
2023-04-09T04:14:46.837Z,2.20
2023-04-09T04:15:46.842Z,1.70
2023-04-09T04:16:46.958Z,2.10
2023-04-09T04:17:46.862Z,1.60
2023-04-09T04:18:46.852Z,1.70
2023-04-09T04:19:46.859Z,2.00
2023-04-09T04:20:46.861Z,1.90
2023-04-09T04:21:46.866Z,2.10
2023-04-09T04:22:46.868Z,1.90
2023-04-09T04:23:46.880Z,2.00
2023-04-09T04:24:46.897Z,2.10
2023-04-09T04:25:46.886Z,2.10
2023-04-09T04:26:46.884Z,2.50
2023-04-09T04:27:46.888Z,2.40
2023-04-09T04:28:46.912Z,2.40
2023-04-09T04:29:46.909Z,2.20
2023-04-09T04:30:46.899Z,2.20
2023-04-09T04:31:46.931Z,2.10
2023-04-09T04:32:46.935Z,2.10
2023-04-09T04:33:46.917Z,2.10
2023-04-09T04:34:46.924Z,2.10
2023-04-09T04:35:46.940Z,2.10
2023-04-09T04:36:46.926Z,1.90
2023-04-09T04:37:46.935Z,1.80
2023-04-09T04:38:46.932Z,2.00
2023-04-09T04:39:46.944Z,2.00
2023-04-09T04:40:47.058Z,1.90
2023-04-09T04:41:46.947Z,1.60
2023-04-09T04:42:46.956Z,1.80
2023-04-09T04:43:46.965Z,1.80
2023-04-09T04:44:46.960Z,1.60
2023-04-09T04:45:46.982Z,1.70
2023-04-09T04:46:46.970Z,1.90
2023-04-09T04:47:47.033Z,1.80
2023-04-09T04:48:47.011Z,1.70
2023-04-09T04:49:46.980Z,1.60
2023-04-09T04:50:46.980Z,1.80
2023-04-09T04:51:46.987Z,1.60
2023-04-09T04:52:46.993Z,1.50
2023-04-09T04:53:46.997Z,1.80
2023-04-09T04:54:46.995Z,1.90
2023-04-09T04:55:47.003Z,1.90
2023-04-09T04:56:47.026Z,1.80
2023-04-09T04:57:47.033Z,1.70
2023-04-09T04:58:47.012Z,1.60
2023-04-09T04:59:47.028Z,1.90
2023-04-09T05:00:47.028Z,1.70
2023-04-09T05:01:47.051Z,1.80
2023-04-09T05:02:47.139Z,1.60
2023-04-09T05:03:47.103Z,1.60
2023-04-09T05:04:47.059Z,1.50
2023-04-09T05:05:47.057Z,1.20
2023-04-09T05:06:47.045Z,1.70
2023-04-09T05:07:47.054Z,1.40
2023-04-09T05:08:47.060Z,1.30
2023-04-09T05:09:47.055Z,1.50
2023-04-09T05:10:47.056Z,1.50
2023-04-09T05:11:47.067Z,1.20
2023-04-09T05:12:47.086Z,1.50
2023-04-09T05:13:47.083Z,1.20
2023-04-09T05:14:47.071Z,1.40
2023-04-09T05:15:47.078Z,1.40
2023-04-09T05:16:47.102Z,1.50
2023-04-09T05:17:47.140Z,1.30
2023-04-09T05:18:47.097Z,1.70
2023-04-09T05:19:47.096Z,2.00
2023-04-09T05:20:47.101Z,1.20
2023-04-09T05:21:47.466Z,1.30
2023-04-09T05:22:47.110Z,1.60
2023-04-09T05:23:47.112Z,1.40
2023-04-09T05:24:47.112Z,1.40
2023-04-09T05:25:47.115Z,1.80
2023-04-09T05:26:47.118Z,1.50
2023-04-09T05:27:47.127Z,1.50
2023-04-09T05:28:47.145Z,1.50
2023-04-09T05:29:47.133Z,1.70
2023-04-09T05:30:47.166Z,1.70
2023-04-09T05:31:47.141Z,1.90
2023-04-09T05:32:47.214Z,1.80
2023-04-09T05:33:47.150Z,1.60
2023-04-09T05:34:47.148Z,1.50
2023-04-09T05:35:47.179Z,1.90
2023-04-09T05:36:47.161Z,1.60
2023-04-09T05:37:47.163Z,1.60
2023-04-09T05:38:47.182Z,1.70
2023-04-09T05:39:47.175Z,1.90
2023-04-09T05:40:47.175Z,2.10
2023-04-09T05:41:47.183Z,1.90
2023-04-09T05:42:47.193Z,1.80
2023-04-09T05:43:47.244Z,1.70
2023-04-09T05:44:47.212Z,1.70
2023-04-09T05:45:47.218Z,1.70
2023-04-09T05:46:47.248Z,1.60
2023-04-09T05:47:47.268Z,1.90
2023-04-09T05:48:47.225Z,1.80
2023-04-09T05:49:47.219Z,1.80
2023-04-09T05:50:53.826Z,1.60
2023-04-09T05:51:47.227Z,1.70
2023-04-09T05:52:47.229Z,1.90
2023-04-09T05:53:47.230Z,1.60
2023-04-09T05:54:47.229Z,1.50
2023-04-09T05:55:47.238Z,2.00
2023-04-09T05:56:47.240Z,1.80
2023-04-09T05:57:47.250Z,1.90
2023-04-09T05:58:47.245Z,1.70
2023-04-09T05:59:47.254Z,1.50
2023-04-09T06:00:47.287Z,1.70
2023-04-09T06:01:47.288Z,1.90
2023-04-09T06:02:47.393Z,1.60
2023-04-09T06:03:47.412Z,1.30
2023-04-09T06:04:47.320Z,1.50
2023-04-09T06:05:47.294Z,1.80
2023-04-09T06:06:47.279Z,1.80
2023-04-09T06:07:47.286Z,1.60
2023-04-09T06:08:47.288Z,2.20
2023-04-09T06:09:47.295Z,1.80
2023-04-09T06:10:47.295Z,1.90
2023-04-09T06:11:47.335Z,2.10
2023-04-09T06:12:47.304Z,3.30
2023-04-09T06:13:47.310Z,3.40
2023-04-09T06:14:47.312Z,2.90
2023-04-09T06:15:47.347Z,2.80
2023-04-09T06:16:47.343Z,2.90
2023-04-09T06:17:47.379Z,3.10
2023-04-09T06:18:47.326Z,3.10
2023-04-09T06:19:47.336Z,3.40
2023-04-09T06:20:47.337Z,3.60
2023-04-09T06:21:47.355Z,3.40
2023-04-09T06:22:47.342Z,3.30
2023-04-09T06:23:47.353Z,2.60
2023-04-09T06:24:47.365Z,2.50
2023-04-09T06:25:47.362Z,2.10
2023-04-09T06:26:47.364Z,1.90
2023-04-09T06:27:47.367Z,1.70
2023-04-09T06:28:47.370Z,1.50
2023-04-09T06:29:47.377Z,1.30
2023-04-09T06:30:47.387Z,1.50
2023-04-09T06:31:47.384Z,1.20
2023-04-09T06:32:54.414Z,1.50
2023-04-09T06:33:47.392Z,1.30
2023-04-09T06:34:47.398Z,1.30
2023-04-09T06:35:47.442Z,1.40
2023-04-09T06:36:47.413Z,1.40
2023-04-09T06:37:47.407Z,1.30
2023-04-09T06:38:47.413Z,1.60
2023-04-09T06:39:59.984Z,1.80
2023-04-09T06:40:47.418Z,1.40
2023-04-09T06:41:47.432Z,1.30
2023-04-09T06:42:47.424Z,1.20
2023-04-09T06:43:47.436Z,1.50
2023-04-09T06:44:47.530Z,1.30
2023-04-09T06:45:47.447Z,1.50
2023-04-09T06:46:47.489Z,1.20
2023-04-09T06:47:47.468Z,1.30
2023-04-09T06:48:47.501Z,1.10
2023-04-09T06:49:47.468Z,1.30
2023-04-09T06:50:47.471Z,1.20
2023-04-09T06:51:47.474Z,1.30
2023-04-09T06:52:47.474Z,1.30
2023-04-09T06:53:47.538Z,1.30
2023-04-09T06:54:47.478Z,1.40
2023-04-09T06:55:47.485Z,1.30
2023-04-09T06:56:47.492Z,1.50
2023-04-09T06:57:47.691Z,1.30
2023-04-09T06:58:47.500Z,1.30
2023-04-09T06:59:47.504Z,1.40
2023-04-09T07:00:47.512Z,1.20
2023-04-09T07:01:47.630Z,1.20
2023-04-09T07:02:47.740Z,1.30
2023-04-09T07:03:47.557Z,1.40
2023-04-09T07:04:47.790Z,1.90
2023-04-09T07:05:47.529Z,1.80
2023-04-09T07:06:47.535Z,1.90
2023-04-09T07:07:47.559Z,1.90
2023-04-09T07:08:47.548Z,1.70
2023-04-09T07:09:47.544Z,1.70
2023-04-09T07:10:47.564Z,1.30
2023-04-09T07:11:47.746Z,1.40
2023-04-09T07:12:47.570Z,1.30
2023-04-09T07:13:47.580Z,1.20
2023-04-09T07:14:47.573Z,1.60
2023-04-09T07:15:47.615Z,1.40
2023-04-09T07:16:47.584Z,1.60
2023-04-09T07:17:47.619Z,1.40
2023-04-09T07:18:47.592Z,1.40
2023-04-09T07:19:47.589Z,1.30
2023-04-09T07:20:47.619Z,1.30
2023-04-09T07:21:47.604Z,1.30
2023-04-09T07:22:47.608Z,1.20
2023-04-09T07:23:47.609Z,1.20
2023-04-09T07:24:47.615Z,1.30
2023-04-09T07:25:47.617Z,1.40
2023-04-09T07:26:47.646Z,1.30
2023-04-09T07:27:47.628Z,1.30
2023-04-09T07:28:47.644Z,1.40
2023-04-09T07:29:47.656Z,1.30
2023-04-09T07:30:47.665Z,1.20
2023-04-09T07:31:47.778Z,1.20
2023-04-09T07:32:47.720Z,1.40
2023-04-09T07:33:47.656Z,1.30
2023-04-09T07:34:47.666Z,1.70
2023-04-09T07:35:47.689Z,1.40
2023-04-09T07:36:47.696Z,1.40
2023-04-09T07:37:47.674Z,1.40
2023-04-09T07:38:47.687Z,1.50
2023-04-09T07:39:47.702Z,1.50
2023-04-09T07:40:47.694Z,1.60
2023-04-09T07:41:47.692Z,2.10
2023-04-09T07:42:47.718Z,1.60
2023-04-09T07:43:47.926Z,1.80
2023-04-09T07:44:47.777Z,1.40
2023-04-09T07:45:47.713Z,1.90
2023-04-09T07:46:47.801Z,1.60
2023-04-09T07:47:47.747Z,1.60
2023-04-09T07:48:48.500Z,1.60
2023-04-09T07:49:47.740Z,1.40
2023-04-09T07:50:47.743Z,1.30
2023-04-09T07:51:47.748Z,1.20
2023-04-09T07:52:47.771Z,1.20
2023-04-09T07:53:47.779Z,1.40
2023-04-09T07:54:47.763Z,1.50
2023-04-09T07:55:47.770Z,1.50
2023-04-09T07:56:47.777Z,1.50
2023-04-09T07:57:47.774Z,1.50
2023-04-09T07:58:47.787Z,1.30
2023-04-09T07:59:47.789Z,1.40
2023-04-09T08:00:47.793Z,1.40
2023-04-09T08:01:47.847Z,1.40
2023-04-09T08:02:47.935Z,1.20
2023-04-09T08:03:48.040Z,1.30
2023-04-09T08:04:47.939Z,1.50
2023-04-09T08:05:47.819Z,1.30
2023-04-09T08:06:47.833Z,1.20
2023-04-09T08:07:47.834Z,1.20
2023-04-09T08:08:47.861Z,1.20
2023-04-09T08:09:47.836Z,1.20
2023-04-09T08:10:47.853Z,1.20
2023-04-09T08:11:47.847Z,1.40
2023-04-09T08:12:47.856Z,1.40
2023-04-09T08:13:47.863Z,1.30
2023-04-09T08:14:47.873Z,1.40
2023-04-09T08:15:47.886Z,1.40
2023-04-09T08:16:48.013Z,1.30
2023-04-09T08:17:47.908Z,1.60
2023-04-09T08:18:47.882Z,1.40
2023-04-09T08:19:47.890Z,1.40
2023-04-09T08:20:47.909Z,1.20
2023-04-09T08:21:47.895Z,1.40
2023-04-09T08:22:47.911Z,1.40
2023-04-09T08:23:47.907Z,1.30
2023-04-09T08:24:47.937Z,1.30
2023-04-09T08:25:47.917Z,1.40
2023-04-09T08:26:47.925Z,1.20
2023-04-09T08:27:47.932Z,1.50
2023-04-09T08:28:47.939Z,1.40
2023-04-09T08:29:47.938Z,1.10
2023-04-09T08:30:47.943Z,1.20
2023-04-09T08:31:48.104Z,1.10
2023-04-09T08:32:47.990Z,1.40
2023-04-09T08:33:47.964Z,1.40
2023-04-09T08:34:47.978Z,1.40
2023-04-09T08:35:48.008Z,1.20
2023-04-09T08:36:48.013Z,1.30
2023-04-09T08:37:47.982Z,1.60
2023-04-09T08:38:47.997Z,1.40
2023-04-09T08:39:47.994Z,1.40
2023-04-09T08:40:48.021Z,1.40
2023-04-09T08:41:48.004Z,1.40
2023-04-09T08:42:48.014Z,1.50
2023-04-09T08:44:48.028Z,1.70
2023-04-09T08:45:48.069Z,1.50
2023-04-09T08:46:48.035Z,1.40
2023-04-09T08:47:48.147Z,1.50
2023-04-09T08:48:48.058Z,1.30
2023-04-09T08:49:48.046Z,1.40
2023-04-09T08:50:48.069Z,1.40
2023-04-09T08:51:48.066Z,1.10
2023-04-09T08:52:48.115Z,1.30
2023-04-09T08:53:48.090Z,1.20
2023-04-09T08:54:48.136Z,1.20
2023-04-09T08:55:48.084Z,1.30
2023-04-09T08:56:48.172Z,1.60
2023-04-09T08:57:48.095Z,1.20
2023-04-09T08:58:48.113Z,1.40
2023-04-09T08:59:48.128Z,1.30
2023-04-09T09:00:48.116Z,1.00
2023-04-09T09:01:48.255Z,0.90
2023-04-09T09:02:48.173Z,1.00
2023-04-09T09:03:48.231Z,1.00
2023-04-09T09:04:48.143Z,1.40
2023-04-09T09:05:48.151Z,1.30
2023-04-09T09:06:48.166Z,1.10
2023-04-09T09:07:48.167Z,1.20
2023-04-09T09:08:48.165Z,1.20
2023-04-09T09:09:48.168Z,1.10
2023-04-09T09:10:48.179Z,1.10
2023-04-09T09:11:48.184Z,1.20
2023-04-09T09:12:48.221Z,1.00
2023-04-09T09:13:48.192Z,1.20
2023-04-09T09:14:48.212Z,1.30
2023-04-09T09:15:48.215Z,1.00
2023-04-09T09:16:48.264Z,1.10
2023-04-09T09:17:48.251Z,1.00
2023-04-09T09:18:48.233Z,1.10
2023-04-09T09:19:48.236Z,1.10
2023-04-09T09:20:48.246Z,1.10
2023-04-09T09:21:48.248Z,1.20
2023-04-09T09:22:49.119Z,1.10
2023-04-09T09:23:48.313Z,1.20
2023-04-09T09:24:49.799Z,1.10
2023-04-09T09:25:48.270Z,1.10
2023-04-09T09:26:48.281Z,1.00
2023-04-09T09:27:48.294Z,1.10
2023-04-09T09:28:48.341Z,1.10
2023-04-09T09:29:48.298Z,1.20
2023-04-09T09:30:49.272Z,1.10
2023-04-09T09:31:48.319Z,1.20
2023-04-09T09:32:48.328Z,1.10
2023-04-09T09:33:48.324Z,1.10
2023-04-09T09:34:48.338Z,1.00
2023-04-09T09:35:48.371Z,1.20
2023-04-09T09:36:48.353Z,1.00
2023-04-09T09:37:48.357Z,1.00
2023-04-09T09:38:48.368Z,0.90
2023-04-09T09:39:48.373Z,0.90
2023-04-09T09:40:48.391Z,1.00
2023-04-09T09:41:48.385Z,0.90
2023-04-09T09:42:48.397Z,1.00
2023-04-09T09:43:48.401Z,1.00
2023-04-09T09:44:48.431Z,1.10
2023-04-09T09:45:48.477Z,1.00
2023-04-09T09:46:48.425Z,1.10
2023-04-09T09:47:48.511Z,1.00
2023-04-09T09:48:48.447Z,1.10
2023-04-09T09:49:48.456Z,1.00
2023-04-09T09:50:48.468Z,1.20
2023-04-09T09:51:48.470Z,1.00
2023-04-09T09:52:48.482Z,1.10
2023-04-09T09:53:49.790Z,1.10
2023-04-09T09:54:48.491Z,1.00
2023-04-09T09:55:48.517Z,1.00
2023-04-09T09:56:48.501Z,1.10
2023-04-09T09:57:48.521Z,1.20
2023-04-09T09:58:48.518Z,0.90
2023-04-09T09:59:48.521Z,0.90
2023-04-09T10:00:48.559Z,0.90
2023-04-09T10:01:48.647Z,1.10
2023-04-09T10:02:48.667Z,1.10
2023-04-09T10:03:48.553Z,1.10
2023-04-09T10:04:48.694Z,0.90
2023-04-09T10:05:48.576Z,1.00
2023-04-09T10:06:48.579Z,1.10
2023-04-09T10:07:48.607Z,1.30
2023-04-09T10:08:48.601Z,0.90
2023-04-09T10:09:48.612Z,1.00
2023-04-09T10:10:48.640Z,1.00
2023-04-09T10:11:48.617Z,1.00
2023-04-09T10:12:48.635Z,1.00
2023-04-09T10:13:48.639Z,1.00
2023-04-09T10:14:48.645Z,1.00
2023-04-09T10:15:48.673Z,1.00
2023-04-09T10:16:48.694Z,0.90
2023-04-09T10:17:48.691Z,0.90
2023-04-09T10:18:48.689Z,0.90
2023-04-09T10:19:48.689Z,0.90
2023-04-09T10:20:48.697Z,0.90
2023-04-09T10:21:48.703Z,1.10
2023-04-09T10:22:48.716Z,1.00
2023-04-09T10:23:48.721Z,1.10
2023-04-09T10:24:48.736Z,1.00
2023-04-09T10:25:48.735Z,1.00
2023-04-09T10:26:48.753Z,1.20
2023-04-09T10:27:48.756Z,1.00
2023-04-09T10:28:48.770Z,1.00
2023-04-09T10:29:48.800Z,1.00
2023-04-09T10:30:48.836Z,1.00
2023-04-09T10:31:48.794Z,1.10
2023-04-09T10:32:48.858Z,1.10
2023-04-09T10:33:48.812Z,1.10
2023-04-09T10:34:48.829Z,1.10
2023-04-09T10:35:48.847Z,0.90
2023-04-09T10:36:48.840Z,1.00
2023-04-09T10:37:48.848Z,1.10
2023-04-09T10:38:48.856Z,1.20
2023-04-09T10:39:48.868Z,1.30
2023-04-09T10:40:48.876Z,1.10
2023-04-09T10:41:48.888Z,1.10
2023-04-09T10:42:48.917Z,0.90
2023-04-09T10:43:48.949Z,1.00
2023-04-09T10:44:48.920Z,1.00
2023-04-09T10:45:48.923Z,1.20
2023-04-09T10:46:48.982Z,1.00
2023-04-09T10:47:49.004Z,1.00
2023-04-09T10:48:48.994Z,1.00
2023-04-09T10:49:48.972Z,1.10
2023-04-09T10:50:49.020Z,1.00
2023-04-09T10:51:48.986Z,0.90
2023-04-09T10:52:48.996Z,0.80
2023-04-09T10:53:49.003Z,1.00
2023-04-09T10:54:49.026Z,0.90
2023-04-09T10:55:49.028Z,1.00
2023-04-09T10:56:49.040Z,1.00
2023-04-09T10:57:49.053Z,0.90
2023-04-09T10:58:49.061Z,0.80
2023-04-09T10:59:49.067Z,0.80
2023-04-09T11:00:49.083Z,0.80
2023-04-09T11:01:49.280Z,0.90
2023-04-09T11:02:49.333Z,0.90
2023-04-09T11:03:49.180Z,0.90
2023-04-09T11:04:49.177Z,0.90
2023-04-09T11:05:49.144Z,0.90
2023-04-09T11:06:49.149Z,0.90
2023-04-09T11:07:49.151Z,1.00
2023-04-09T11:08:49.182Z,0.90
2023-04-09T11:09:49.171Z,0.90
2023-04-09T11:10:52.029Z,0.90
2023-04-09T11:11:49.216Z,1.00
2023-04-09T11:12:49.236Z,0.90
2023-04-09T11:13:49.216Z,0.90
2023-04-09T11:14:49.229Z,0.90
2023-04-09T11:15:49.256Z,0.90
2023-04-09T11:16:49.334Z,1.00
2023-04-09T11:17:49.319Z,1.00
2023-04-09T11:18:49.300Z,0.80
2023-04-09T11:19:49.280Z,0.90
2023-04-09T11:20:49.320Z,0.90
2023-04-09T11:21:49.305Z,0.90
2023-04-09T11:22:49.318Z,0.90
2023-04-09T11:23:49.327Z,0.80
2023-04-09T11:24:49.335Z,0.80
2023-04-09T11:25:49.355Z,0.90
2023-04-09T11:26:49.359Z,0.90
2023-04-09T11:27:49.371Z,0.90
2023-04-09T11:28:49.386Z,0.90
2023-04-09T11:29:49.399Z,0.80
2023-04-09T11:30:49.408Z,0.90
2023-04-09T11:31:49.449Z,1.10
2023-04-09T11:32:49.437Z,1.00
2023-04-09T11:33:49.438Z,1.00
2023-04-09T11:34:49.448Z,1.20
2023-04-09T11:35:49.525Z,0.90
2023-04-09T11:36:49.497Z,0.80
2023-04-09T11:37:49.486Z,1.10
2023-04-09T11:38:49.605Z,1.10
2023-04-09T11:39:49.508Z,1.10
2023-04-09T11:40:49.980Z,1.00
2023-04-09T11:41:49.535Z,1.00
2023-04-09T11:42:49.554Z,1.00
2023-04-09T11:43:49.560Z,0.90
2023-04-09T11:44:49.586Z,1.10
2023-04-09T11:45:49.596Z,0.90
2023-04-09T11:46:49.682Z,0.90
2023-04-09T11:47:49.656Z,0.90
2023-04-09T11:48:49.642Z,1.00
2023-04-09T11:49:49.631Z,0.90
2023-04-09T11:50:49.646Z,1.00
2023-04-09T11:51:49.680Z,1.10
2023-04-09T11:52:49.684Z,0.90
2023-04-09T11:53:49.680Z,1.00
2023-04-09T11:54:49.682Z,1.00
2023-04-09T11:55:49.705Z,0.90
2023-04-09T11:56:49.712Z,1.00
2023-04-09T11:57:49.727Z,0.90
2023-04-09T11:58:49.836Z,1.00
2023-04-09T11:59:49.746Z,0.90
2023-04-09T12:00:49.758Z,0.90
2023-04-09T12:01:49.826Z,0.90
2023-04-09T12:02:49.995Z,0.80
2023-04-09T12:03:49.895Z,0.80
2023-04-09T12:04:49.886Z,1.00
2023-04-09T12:05:51.024Z,0.90
2023-04-09T12:06:49.838Z,1.00
2023-04-09T12:07:55.963Z,0.90
2023-04-09T12:08:49.953Z,0.90
2023-04-09T12:09:49.888Z,1.00
2023-04-09T12:10:51.428Z,0.90
2023-04-09T12:11:49.893Z,0.80
2023-04-09T12:12:49.903Z,0.90
2023-04-09T12:13:49.934Z,0.90
2023-04-09T12:14:49.927Z,0.90
2023-04-09T12:15:50.110Z,0.80
2023-04-09T12:16:49.980Z,0.80
2023-04-09T12:17:50.061Z,0.90
2023-04-09T12:18:50.002Z,1.00
2023-04-09T12:19:50.001Z,0.80
2023-04-09T12:20:50.019Z,1.00
2023-04-09T12:21:50.044Z,0.90
2023-04-09T12:22:50.027Z,1.00
2023-04-09T12:23:50.040Z,0.80
2023-04-09T12:24:50.069Z,0.90
2023-04-09T12:25:50.063Z,1.00
2023-04-09T12:26:50.075Z,0.80
2023-04-09T12:27:50.096Z,0.90
2023-04-09T12:28:50.112Z,0.80
2023-04-09T12:29:50.115Z,0.90
2023-04-09T12:30:50.137Z,0.90
2023-04-09T12:31:50.158Z,0.80
2023-04-09T12:32:50.193Z,0.80
2023-04-09T12:33:50.163Z,0.80
2023-04-09T12:34:50.173Z,0.80
2023-04-09T12:35:50.243Z,0.80
2023-04-09T12:36:50.216Z,0.80
2023-04-09T12:37:50.217Z,0.80
2023-04-09T12:38:50.441Z,0.80
2023-04-09T12:39:50.239Z,0.80
2023-04-09T12:40:50.279Z,0.90
2023-04-09T12:41:50.271Z,0.90
2023-04-09T12:42:50.315Z,1.00
2023-04-09T12:43:50.397Z,0.80
2023-04-09T12:44:50.298Z,1.00
2023-04-09T12:45:50.405Z,1.00
2023-04-09T12:46:50.321Z,0.90
2023-04-09T12:47:50.388Z,0.90
2023-04-09T12:48:50.354Z,0.90
2023-04-09T12:49:50.363Z,1.00
2023-04-09T12:50:50.383Z,0.90
2023-04-09T12:51:50.388Z,1.00
2023-04-09T12:52:50.407Z,0.90
2023-04-09T12:53:50.627Z,0.90
2023-04-09T12:54:50.421Z,0.90
2023-04-09T12:55:50.435Z,0.90
2023-04-09T12:56:50.466Z,1.00
2023-04-09T12:57:50.469Z,0.90
2023-04-09T12:58:50.618Z,1.10
2023-04-09T12:59:50.488Z,1.00
2023-04-09T13:00:50.497Z,0.80
2023-04-09T13:01:50.635Z,0.90
2023-04-09T13:02:50.602Z,0.90
2023-04-09T13:03:50.857Z,0.90
2023-04-09T13:04:50.546Z,1.00
2023-04-09T13:05:50.564Z,1.10
2023-04-09T13:06:50.572Z,0.90
2023-04-09T13:07:50.585Z,1.00
2023-04-09T13:08:50.597Z,0.90
2023-04-09T13:09:50.611Z,0.80
2023-04-09T13:10:50.623Z,0.90
2023-04-09T13:11:50.644Z,0.90
2023-04-09T13:12:50.671Z,0.90
2023-04-09T13:13:50.968Z,1.10
2023-04-09T13:14:50.676Z,0.80
2023-04-09T13:15:50.697Z,0.80
2023-04-09T13:16:50.735Z,0.90
2023-04-09T13:17:50.784Z,0.80
2023-04-09T13:18:50.979Z,0.70
2023-04-09T13:19:50.739Z,1.00